Time;durP1;ratioP1;P1;durP2;ratioP2;P2;SDS_P1;SDS_P2;PMS_P1;PMS_P2;Temp;Humidity;BMP_temperature;BMP_pressure;BME280_temperature;BME280_humidity;BME280_pressure;Samples;Min_cycle;Max_cycle;Signal;HPM_P1;HPM_P2
2021/01/16 00:00:38;;;;;;;17.80;10.63;;;1.10;99.90;;;;;;5011686;28;20180;-65
2021/01/16 00:03:11;;;;;;;17.10;10.80;;;1.00;99.90;;;;;;5012339;28;20665;-64
2021/01/16 00:05:37;;;;;;;21.33;12.57;;;1.10;99.90;;;;;;5030680;28;20211;-64
2021/01/16 00:08:23;;;;;;;18.50;12.20;;;1.10;99.90;;;;;;5030266;28;20160;-64
2021/01/16 00:10:50;;;;;;;20.07;11.27;;;1.10;99.90;;;;;;5011443;28;20211;-65
2021/01/16 00:13:18;;;;;;;16.77;10.63;;;1.10;99.90;;;;;;5012802;28;20203;-65
2021/01/16 00:15:44;;;;;;;18.07;11.03;;;1.00;99.90;;;;;;5030813;28;20661;-64
2021/01/16 00:18:15;;;;;;;15.87;10.77;;;1.00;99.90;;;;;;5031840;28;20317;-64
2021/01/16 00:20:49;;;;;;;21.27;11.50;;;1.00;99.90;;;;;;5015189;28;20172;-64
2021/01/16 00:23:15;;;;;;;17.40;11.47;;;1.10;99.90;;;;;;5032030;28;20233;-63
2021/01/16 00:25:42;;;;;;;15.87;10.43;;;1.20;99.90;;;;;;5034377;28;20560;-64
2021/01/16 00:28:15;;;;;;;18.13;11.03;;;1.10;99.90;;;;;;5018504;28;20181;-64
2021/01/16 00:30:41;;;;;;;19.53;11.53;;;1.10;99.90;;;;;;5014942;28;20172;-63
2021/01/16 00:33:26;;;;;;;19.23;11.50;;;1.10;99.90;;;;;;5029989;28;20175;-64
2021/01/16 00:35:54;;;;;;;15.77;11.10;;;1.10;99.90;;;;;;5034812;28;20230;-64
2021/01/16 00:38:21;;;;;;;17.33;10.63;;;1.10;99.90;;;;;;5017183;28;20187;-64
2021/01/16 00:40:47;;;;;;;19.00;10.93;;;1.10;99.90;;;;;;5014735;28;20660;-64
2021/01/16 00:43:14;;;;;;;19.80;11.53;;;1.00;99.90;;;;;;5029312;28;20183;-63
2021/01/16 00:45:41;;;;;;;22.03;12.10;;;1.00;99.90;;;;;;5034092;28;20219;-64
2021/01/16 00:48:08;;;;;;;19.37;11.67;;;1.10;99.90;;;;;;5020471;28;20660;-64
2021/01/16 00:50:33;;;;;;;18.07;11.33;;;1.10;99.90;;;;;;5023024;28;20189;-65
2021/01/16 00:52:59;;;;;;;18.97;11.07;;;1.10;99.90;;;;;;5026715;28;20673;-63
2021/01/16 00:55:25;;;;;;;16.60;10.83;;;1.10;99.90;;;;;;5014275;28;20195;-63
2021/01/16 00:57:54;;;;;;;18.53;11.37;;;1.10;99.90;;;;;;5019858;28;20715;-63
2021/01/16 01:00:23;;;;;;;15.97;10.17;;;1.10;99.90;;;;;;5034404;28;20179;-64
2021/01/16 01:02:48;;;;;;;15.50;10.77;;;1.20;99.90;;;;;;5028951;28;20587;-63
2021/01/16 01:05:16;;;;;;;15.73;10.60;;;1.20;99.90;;;;;;5014224;28;20204;-62
2021/01/16 01:07:45;;;;;;;17.30;10.80;;;1.20;99.90;;;;;;5017013;28;20605;-64
2021/01/16 01:10:11;;;;;;;18.67;10.93;;;1.20;99.90;;;;;;5034339;28;20587;-63
2021/01/16 01:12:39;;;;;;;15.53;10.63;;;1.20;99.90;;;;;;5031206;28;20209;-64
2021/01/16 01:15:07;;;;;;;16.83;11.70;;;1.20;99.90;;;;;;5014147;28;20210;-64
2021/01/16 01:17:32;;;;;;;16.40;11.27;;;1.20;99.90;;;;;;5014445;28;20200;-64
2021/01/16 01:19:58;;;;;;;17.50;10.80;;;1.20;99.90;;;;;;5030018;28;20640;-63
2021/01/16 01:22:25;;;;;;;17.00;10.40;;;1.30;99.90;;;;;;5033629;28;20266;-64
2021/01/16 01:24:50;;;;;;;16.40;10.67;;;1.20;99.90;;;;;;5014111;28;20208;-64
2021/01/16 01:27:16;;;;;;;14.70;10.33;;;1.20;99.90;;;;;;5013599;28;20242;-62
2021/01/16 01:29:42;;;;;;;16.83;10.73;;;1.20;99.90;;;;;;5030991;28;20175;-64
2021/01/16 01:32:07;;;;;;;14.43;9.93;;;1.20;99.90;;;;;;5033846;28;20641;-64
2021/01/16 01:34:33;;;;;;;18.10;10.57;;;1.20;99.90;;;;;;5016982;28;20286;-64
2021/01/16 01:36:58;;;;;;;16.50;10.40;;;1.20;99.90;;;;;;5028712;28;20207;-63
2021/01/16 01:39:24;;;;;;;14.33;9.70;;;1.20;99.90;;;;;;5018893;28;20188;-63
2021/01/16 01:41:49;;;;;;;16.20;9.83;;;1.30;99.90;;;;;;5013617;28;20255;-65
2021/01/16 01:44:15;;;;;;;13.93;10.40;;;1.30;99.90;;;;;;5025852;28;20230;-65
2021/01/16 01:46:41;;;;;;;16.10;10.90;;;1.30;99.90;;;;;;5031401;28;20676;-64
2021/01/16 01:49:06;;;;;;;16.67;10.00;;;1.30;99.90;;;;;;5033200;28;20509;-65
2021/01/16 01:51:34;;;;;;;18.47;11.73;;;1.40;99.90;;;;;;5026690;28;20188;-63
2021/01/16 01:54:00;;;;;;;21.43;11.73;;;1.40;99.90;;;;;;5013428;28;20200;-65
2021/01/16 01:56:27;;;;;;;21.80;11.57;;;1.40;99.90;;;;;;5018025;28;20560;-64
2021/01/16 01:58:55;;;;;;;19.17;13.27;;;1.50;99.90;;;;;;5032860;28;20199;-64
2021/01/16 02:01:21;;;;;;;18.40;11.97;;;1.40;99.90;;;;;;5029432;28;20172;-64
2021/01/16 02:03:51;;;;;;;18.43;11.33;;;1.30;99.90;;;;;;5012950;28;20184;-64
2021/01/16 02:06:17;;;;;;;21.73;11.50;;;1.30;99.90;;;;;;5015308;28;20707;-64
2021/01/16 02:08:43;;;;;;;17.77;10.13;;;1.20;99.90;;;;;;5032739;28;20171;-64
2021/01/16 02:11:11;;;;;;;17.87;10.53;;;1.20;99.90;;;;;;5031978;28;20168;-64
2021/01/16 02:13:38;;;;;;;16.17;10.83;;;1.20;99.90;;;;;;5012770;28;20184;-64
2021/01/16 02:16:12;;;;;;;18.43;11.40;;;1.20;99.90;;;;;;5028973;28;20229;-64
2021/01/16 02:18:43;;;;;;;18.53;10.10;;;1.30;99.90;;;;;;5032343;28;20171;-64
2021/01/16 02:21:11;;;;;;;18.30;11.30;;;1.20;99.90;;;;;;5016287;28;20184;-64
2021/01/16 02:23:54;;;;;;;16.67;10.63;;;1.20;99.90;;;;;;5019557;28;20183;-64
2021/01/16 02:26:27;;;;;;;16.73;10.50;;;1.20;99.90;;;;;;5032462;28;20257;-63
2021/01/16 02:29:02;;;;;;;19.30;11.60;;;1.20;99.90;;;;;;5023376;28;20203;-64
2021/01/16 02:31:32;;;;;;;18.07;10.93;;;1.20;99.90;;;;;;5012652;28;20507;-64
2021/01/16 02:34:00;;;;;;;18.03;11.23;;;1.30;99.90;;;;;;5013615;28;20294;-64
2021/01/16 02:36:41;;;;;;;16.27;9.80;;;1.30;99.90;;;;;;5012539;28;20172;-64
2021/01/16 02:39:16;;;;;;;15.87;9.97;;;1.30;99.90;;;;;;5021887;28;20190;-64
2021/01/16 02:42:00;;;;;;;15.93;10.80;;;1.30;99.90;;;;;;5031499;28;20533;-64
2021/01/16 02:44:44;;;;;;;17.13;10.33;;;1.20;99.90;;;;;;5020326;28;20208;-64
2021/01/16 02:47:29;;;;;;;17.53;10.57;;;1.30;99.90;;;;;;5013210;28;20653;-64
2021/01/16 02:50:08;;;;;;;18.17;10.63;;;1.20;99.90;;;;;;5012491;28;20168;-64
2021/01/16 02:52:44;;;;;;;15.33;9.60;;;1.20;99.90;;;;;;5029052;28;20202;-64
2021/01/16 02:55:11;;;;;;;18.93;10.17;;;1.20;99.90;;;;;;5032020;28;20571;-63
2021/01/16 02:57:37;;;;;;;15.17;9.50;;;1.20;99.90;;;;;;4996739;28;20484;-64
2021/01/16 03:00:14;;;;;;;20.57;10.57;;;1.20;99.90;;;;;;5012446;28;20173;-64
2021/01/16 03:02:39;;;;;;;16.70;9.97;;;1.20;99.90;;;;;;4992214;28;20180;-64
2021/01/16 03:05:07;;;;;;;20.33;10.90;;;1.30;99.90;;;;;;4992199;28;20208;-65
2021/01/16 03:07:34;;;;;;;23.07;10.93;;;1.20;99.90;;;;;;5031277;28;20317;-64
2021/01/16 03:10:08;;;;;;;17.73;11.63;;;1.20;99.90;;;;;;5031892;28;20164;-64
2021/01/16 03:12:35;;;;;;;17.40;10.70;;;1.20;99.90;;;;;;5010223;28;20235;-64
2021/01/16 03:15:16;;;;;;;20.27;11.00;;;1.20;99.90;;;;;;5011920;28;20192;-62
2021/01/16 03:17:45;;;;;;;24.10;12.13;;;1.20;99.90;;;;;;5031108;28;20179;-65
2021/01/16 03:20:21;;;;;;;22.17;10.97;;;1.20;99.90;;;;;;5028556;28;20533;-64
2021/01/16 03:22:49;;;;;;;17.50;11.17;;;1.20;99.90;;;;;;4992720;28;20187;-64
2021/01/16 03:25:19;;;;;;;20.40;11.17;;;1.20;99.90;;;;;;4998443;28;20199;-64
2021/01/16 03:27:45;;;;;;;21.57;11.87;;;1.20;99.90;;;;;;5031174;28;20233;-65
2021/01/16 03:30:11;;;;;;;25.43;11.10;;;1.20;99.90;;;;;;5016886;28;20550;-64
2021/01/16 03:32:37;;;;;;;23.67;11.40;;;1.20;99.90;;;;;;5011975;28;20195;-64
2021/01/16 03:35:04;;;;;;;21.80;11.40;;;1.20;99.90;;;;;;5024147;28;20695;-63
2021/01/16 03:37:29;;;;;;;22.13;11.80;;;1.20;99.90;;;;;;5031030;28;20179;-63
2021/01/16 03:39:55;;;;;;;19.53;11.33;;;1.20;99.90;;;;;;5019896;28;20184;-64
2021/01/16 03:42:20;;;;;;;21.50;12.77;;;1.20;99.90;;;;;;5011705;28;20199;-63
2021/01/16 03:44:46;;;;;;;19.07;11.83;;;1.20;99.90;;;;;;5020879;28;20268;-64
2021/01/16 03:47:12;;;;;;;23.57;12.97;;;1.10;99.90;;;;;;5031098;28;20214;-63
2021/01/16 03:49:38;;;;;;;22.63;12.07;;;1.10;99.90;;;;;;5023239;28;20188;-63
2021/01/16 03:52:04;;;;;;;19.60;11.97;;;1.10;99.90;;;;;;5011763;28;20179;-63
2021/01/16 03:54:30;;;;;;;25.50;13.80;;;1.20;99.90;;;;;;5020939;28;20184;-64
2021/01/16 03:56:56;;;;;;;20.10;12.60;;;1.20;99.90;;;;;;5035394;28;20569;-64
2021/01/16 03:59:21;;;;;;;20.17;12.70;;;1.20;99.90;;;;;;5030884;28;20176;-63
2021/01/16 04:01:48;;;;;;;23.40;12.83;;;1.20;99.90;;;;;;5015364;28;20714;-63
2021/01/16 04:04:14;;;;;;;23.87;14.17;;;1.20;99.90;;;;;;5029068;28;20676;-64
2021/01/16 04:06:40;;;;;;;26.37;14.40;;;1.10;99.90;;;;;;5034948;28;20202;-65
2021/01/16 04:09:06;;;;;;;24.17;13.57;;;1.20;99.90;;;;;;5022886;28;20191;-64
2021/01/16 04:11:32;;;;;;;26.07;13.53;;;1.20;99.90;;;;;;5015313;28;20176;-64
2021/01/16 04:13:57;;;;;;;20.00;13.30;;;1.20;99.90;;;;;;5024988;28;20191;-62
2021/01/16 04:16:26;;;;;;;21.80;12.93;;;1.20;99.90;;;;;;5034984;28;20171;-63
2021/01/16 04:18:52;;;;;;;21.70;13.07;;;1.20;99.90;;;;;;5017855;28;20187;-63
2021/01/16 04:21:17;;;;;;;24.50;14.20;;;1.10;99.90;;;;;;5015148;28;20172;-65
2021/01/16 04:23:43;;;;;;;27.13;13.90;;;1.20;99.90;;;;;;5029655;28;20282;-64
2021/01/16 04:26:09;;;;;;;24.47;14.07;;;1.20;99.90;;;;;;5034753;28;20577;-64
2021/01/16 04:28:35;;;;;;;23.93;14.40;;;1.20;99.90;;;;;;5021407;28;20188;-65
2021/01/16 04:31:00;;;;;;;21.20;13.60;;;1.20;99.90;;;;;;5015046;28;20178;-64
2021/01/16 04:33:26;;;;;;;23.60;13.73;;;1.30;99.90;;;;;;5025628;28;20547;-64
2021/01/16 04:35:52;;;;;;;21.00;13.60;;;1.20;99.90;;;;;;5034584;28;20185;-64
2021/01/16 04:38:17;;;;;;;23.33;13.87;;;1.20;99.90;;;;;;5024801;28;20243;-64
2021/01/16 04:40:44;;;;;;;26.60;15.37;;;1.20;99.90;;;;;;5015620;28;20263;-64
2021/01/16 04:43:12;;;;;;;21.57;13.77;;;1.20;99.90;;;;;;5034766;28;20210;-63
2021/01/16 04:45:39;;;;;;;21.77;13.67;;;1.20;99.90;;;;;;5034202;28;20198;-65
2021/01/16 04:48:07;;;;;;;23.53;13.60;;;1.20;99.90;;;;;;5014633;28;20176;-64
2021/01/16 04:50:32;;;;;;;21.70;13.57;;;1.20;99.90;;;;;;5022563;28;20274;-64
2021/01/16 04:53:04;;;;;;;19.53;12.90;;;1.20;99.90;;;;;;5034498;28;20708;-65
2021/01/16 04:55:36;;;;;;;25.90;13.30;;;1.20;99.90;;;;;;5026626;28;20211;-65
2021/01/16 04:58:07;;;;;;;20.57;12.87;;;1.20;99.90;;;;;;5014053;28;20179;-64
2021/01/16 05:00:42;;;;;;;23.80;12.13;;;1.20;99.90;;;;;;5021182;28;20686;-64
2021/01/16 05:03:12;;;;;;;21.23;12.60;;;1.20;99.90;;;;;;5033943;28;20175;-65
2021/01/16 05:05:40;;;;;;;21.70;13.37;;;1.20;99.90;;;;;;5026732;28;20640;-65
2021/01/16 05:08:08;;;;;;;25.10;14.37;;;1.30;99.90;;;;;;5014172;28;20176;-65
2021/01/16 05:10:40;;;;;;;20.90;12.77;;;1.30;99.90;;;;;;5019737;28;20171;-64
2021/01/16 05:13:17;;;;;;;20.60;13.20;;;1.30;99.90;;;;;;5034252;28;20168;-64
2021/01/16 05:15:44;;;;;;;26.33;15.30;;;1.30;99.90;;;;;;5019189;28;20227;-64
2021/01/16 05:18:17;;;;;;;26.10;14.30;;;1.40;99.90;;;;;;5013760;28;20177;-65
2021/01/16 05:20:44;;;;;;;27.57;15.03;;;1.40;99.90;;;;;;5027370;28;20175;-65
2021/01/16 05:23:17;;;;;;;24.23;13.73;;;1.40;99.90;;;;;;5033819;28;20168;-64
2021/01/16 05:25:46;;;;;;;20.97;13.40;;;1.40;99.90;;;;;;5023728;28;20250;-65
2021/01/16 05:28:17;;;;;;;23.63;14.20;;;1.40;99.90;;;;;;4996084;28;20165;-63
2021/01/16 05:30:58;;;;;;;20.47;12.83;;;1.40;99.90;;;;;;5025984;28;20575;-65
2021/01/16 05:33:29;;;;;;;22.43;12.73;;;1.40;99.90;;;;;;5033407;28;20245;-65
2021/01/16 05:35:57;;;;;;;27.60;15.03;;;1.40;99.90;;;;;;5036925;23;20685;-65
2021/01/16 05:38:25;;;;;;;29.47;17.37;;;1.40;99.90;;;;;;5032509;28;20640;-65
2021/01/16 05:40:53;;;;;;;36.27;18.90;;;1.40;99.90;;;;;;5021178;28;20259;-65
2021/01/16 05:43:20;;;;;;;32.10;18.27;;;1.30;99.90;;;;;;5013767;28;20172;-64
2021/01/16 05:45:50;;;;;;;31.93;17.80;;;1.30;99.90;;;;;;5031825;28;20321;-65
2021/01/16 05:48:17;;;;;;;24.63;14.77;;;1.30;99.90;;;;;;5033309;28;20539;-65
2021/01/16 05:50:42;;;;;;;22.93;14.50;;;1.30;99.90;;;;;;5015312;28;20188;-65
2021/01/16 05:53:09;;;;;;;21.70;13.70;;;1.30;99.90;;;;;;5013495;28;20168;-64
2021/01/16 05:55:34;;;;;;;20.53;12.90;;;1.20;99.90;;;;;;5029035;28;20253;-65
2021/01/16 05:58:07;;;;;;;22.60;13.03;;;1.30;99.90;;;;;;5032932;28;20172;-64
2021/01/16 06:00:39;;;;;;;24.77;13.63;;;1.30;99.90;;;;;;5017787;28;20251;-65
2021/01/16 06:03:07;;;;;;;22.73;12.87;;;1.30;99.90;;;;;;5013414;28;20176;-64
2021/01/16 06:05:34;;;;;;;24.40;15.30;;;1.40;99.90;;;;;;5027296;28;20199;-64
2021/01/16 06:08:00;;;;;;;26.73;14.43;;;1.40;99.90;;;;;;5032712;28;20551;-64
2021/01/16 06:10:26;;;;;;;23.23;14.50;;;1.40;99.90;;;;;;5019713;28;20184;-64
2021/01/16 06:12:52;;;;;;;24.73;14.90;;;1.40;99.90;;;;;;5013370;28;20258;-64
2021/01/16 06:15:20;;;;;;;23.67;13.83;;;1.30;99.90;;;;;;5030943;28;20203;-64
2021/01/16 06:17:48;;;;;;;26.97;14.23;;;1.40;99.90;;;;;;5032426;28;20190;-65
2021/01/16 06:20:19;;;;;;;28.87;14.57;;;1.40;99.90;;;;;;5014595;28;20242;-65
2021/01/16 06:22:49;;;;;;;26.03;15.00;;;1.30;99.90;;;;;;5013076;28;20214;-64
2021/01/16 06:25:23;;;;;;;23.00;13.17;;;1.30;99.90;;;;;;5030056;28;20211;-65
2021/01/16 06:27:50;;;;;;;25.37;13.83;;;1.40;99.90;;;;;;5032243;28;20163;-64
2021/01/16 06:30:19;;;;;;;24.23;13.50;;;1.40;99.90;;;;;;5015293;28;20187;-65
2021/01/16 06:32:53;;;;;;;23.37;12.90;;;1.40;99.90;;;;;;5012799;28;20184;-65
2021/01/16 06:35:20;;;;;;;24.90;13.00;;;1.40;99.90;;;;;;5029171;28;20232;-64
2021/01/16 06:37:49;;;;;;;26.80;13.30;;;1.40;99.90;;;;;;5032075;28;20636;-65
2021/01/16 06:40:38;;;;;;;24.00;13.13;;;1.50;99.90;;;;;;5016159;28;20195;-65
2021/01/16 06:43:16;;;;;;;26.87;12.87;;;1.30;99.90;;;;;;5017781;28;20270;-65
2021/01/16 06:45:42;;;;;;;27.83;13.63;;;1.30;99.90;;;;;;5032043;28;20207;-65
2021/01/16 06:48:10;;;;;;;22.13;13.33;;;1.30;99.90;;;;;;5025903;28;20297;-65
2021/01/16 06:50:36;;;;;;;19.93;13.00;;;1.30;99.90;;;;;;5011914;28;20267;-65
2021/01/16 06:53:03;;;;;;;26.80;14.00;;;1.30;99.90;;;;;;5013509;28;20184;-65
2021/01/16 06:55:31;;;;;;;29.07;14.37;;;1.40;99.90;;;;;;5012274;28;20597;-65
2021/01/16 06:58:18;;;;;;;23.97;13.03;;;1.30;99.90;;;;;;5015038;28;20561;-65
2021/01/16 07:00:55;;;;;;;26.50;14.60;;;1.30;99.90;;;;;;5012200;28;20219;-65
2021/01/16 07:03:25;;;;;;;25.10;14.70;;;1.40;99.90;;;;;;5017734;28;20202;-65
2021/01/16 07:05:55;;;;;;;22.90;12.90;;;1.40;99.90;;;;;;5030309;28;20210;-65
2021/01/16 07:08:22;;;;;;;25.27;14.17;;;1.40;99.90;;;;;;5032146;28;20663;-65
2021/01/16 07:10:49;;;;;;;24.10;13.80;;;1.40;99.90;;;;;;5030221;28;20195;-65
2021/01/16 07:13:18;;;;;;;24.90;15.10;;;1.40;99.90;;;;;;5032048;28;20572;-65
2021/01/16 07:15:46;;;;;;;22.40;13.30;;;1.40;99.90;;;;;;5031178;28;20728;-64
2021/01/16 07:18:12;;;;;;;19.53;14.17;;;1.40;99.90;;;;;;5011920;28;20172;-65
2021/01/16 07:20:40;;;;;;;22.60;13.93;;;1.40;99.90;;;;;;5011949;28;20187;-65
2021/01/16 07:23:05;;;;;;;23.37;12.87;;;1.40;99.90;;;;;;5030739;28;20218;-65
2021/01/16 07:25:32;;;;;;;21.27;12.43;;;1.40;99.90;;;;;;5028183;28;20575;-64
2021/01/16 07:27:58;;;;;;;27.40;14.30;;;1.50;99.90;;;;;;5011259;28;20169;-64
2021/01/16 07:30:26;;;;;;;19.07;13.53;;;1.40;99.90;;;;;;5013031;28;20187;-64
2021/01/16 07:32:52;;;;;;;21.80;13.13;;;1.40;99.90;;;;;;5025774;28;20181;-65
2021/01/16 07:35:20;;;;;;;20.30;13.93;;;1.40;99.90;;;;;;5011638;28;20273;-65
2021/01/16 07:37:49;;;;;;;21.43;13.27;;;1.40;99.90;;;;;;4991761;28;20697;-63
2021/01/16 07:40:16;;;;;;;27.67;14.13;;;1.40;99.90;;;;;;4992319;28;20224;-65
2021/01/16 07:43:01;;;;;;;22.90;13.20;;;1.40;99.90;;;;;;5030047;28;20179;-64
2021/01/16 07:45:28;;;;;;;22.73;14.00;;;1.40;99.90;;;;;;5030831;28;20207;-65
2021/01/16 07:48:04;;;;;;;21.67;13.70;;;1.40;99.90;;;;;;4992088;28;20196;-65
2021/01/16 07:50:35;;;;;;;25.53;13.70;;;1.50;99.90;;;;;;4992428;28;20531;-65
2021/01/16 07:53:03;;;;;;;23.63;14.33;;;1.50;99.90;;;;;;5031575;28;20187;-65
2021/01/16 07:55:35;;;;;;;19.63;12.57;;;1.40;99.90;;;;;;5023965;28;20215;-64
2021/01/16 07:58:05;;;;;;;22.30;13.67;;;1.40;99.90;;;;;;5011134;28;20180;-65
2021/01/16 08:00:34;;;;;;;24.47;14.17;;;1.40;99.90;;;;;;5012590;28;20176;-65
2021/01/16 08:03:30;;;;;;;21.10;13.30;;;1.40;99.90;;;;;;5028464;28;20184;-65
2021/01/16 08:06:07;;;;;;;23.47;14.47;;;1.40;99.90;;;;;;5012568;28;20242;-65
2021/01/16 08:09:03;;;;;;;23.67;13.30;;;1.50;99.90;;;;;;5030787;28;20838;-65
2021/01/16 08:11:31;;;;;;;22.43;13.67;;;1.50;99.90;;;;;;5025248;28;20192;-64
2021/01/16 08:14:03;;;;;;;20.77;12.57;;;1.50;99.90;;;;;;5011488;28;20184;-65
2021/01/16 08:16:29;;;;;;;30.00;14.67;;;1.50;99.90;;;;;;5029429;28;20183;-64
2021/01/16 08:19:24;;;;;;;19.60;13.10;;;1.50;99.90;;;;;;5006891;28;20193;-64
2021/01/16 08:21:57;;;;;;;25.73;14.80;;;1.50;99.90;;;;;;4991913;28;20220;-64
2021/01/16 08:24:27;;;;;;;24.40;14.83;;;1.50;99.90;;;;;;4992019;28;20197;-65
2021/01/16 08:26:58;;;;;;;23.50;13.93;;;1.50;99.90;;;;;;5023798;28;20211;-65
2021/01/16 08:29:24;;;;;;;19.43;13.43;;;1.50;99.90;;;;;;5030799;28;20179;-64
2021/01/16 08:32:11;;;;;;;18.23;12.27;;;1.50;99.90;;;;;;5011746;28;20207;-65
2021/01/16 08:34:53;;;;;;;21.57;12.53;;;1.60;99.90;;;;;;5012187;28;20269;-65
2021/01/16 08:37:36;;;;;;;20.47;13.33;;;1.50;99.90;;;;;;5030635;28;20183;-64
2021/01/16 08:40:05;;;;;;;19.93;11.90;;;1.60;99.90;;;;;;5030861;28;20168;-64
2021/01/16 08:42:31;;;;;;;21.13;12.73;;;1.60;99.90;;;;;;5014718;28;20180;-64
2021/01/16 08:44:58;;;;;;;20.47;12.97;;;1.60;99.90;;;;;;5017020;28;20298;-65
2021/01/16 08:47:24;;;;;;;21.03;13.70;;;1.60;99.90;;;;;;5034170;28;20190;-65
2021/01/16 08:49:51;;;;;;;22.80;13.97;;;1.60;99.90;;;;;;5023418;28;20176;-64
2021/01/16 08:52:33;;;;;;;22.27;13.57;;;1.60;99.90;;;;;;5034406;28;20179;-65
2021/01/16 08:55:05;;;;;;;25.13;14.50;;;1.60;99.90;;;;;;5015737;28;20200;-65
2021/01/16 08:57:36;;;;;;;21.90;13.80;;;1.60;99.90;;;;;;5012830;28;20233;-64
2021/01/16 09:00:24;;;;;;;22.40;13.90;;;1.60;99.90;;;;;;5034025;28;20246;-65
2021/01/16 09:03:24;;;;;;;20.43;13.63;;;1.70;99.90;;;;;;5033370;28;20648;-65
2021/01/16 09:06:15;;;;;;;21.70;13.70;;;1.60;99.90;;;;;;5014184;28;20259;-65
2021/01/16 09:08:46;;;;;;;21.47;13.63;;;1.60;99.90;;;;;;5014364;28;20172;-65
2021/01/16 09:11:13;;;;;;;23.70;13.53;;;1.60;99.90;;;;;;5014966;28;20692;-65
2021/01/16 09:13:42;;;;;;;22.87;13.80;;;1.70;99.90;;;;;;5014588;28;20184;-64
2021/01/16 09:16:29;;;;;;;21.00;12.70;;;1.60;99.90;;;;;;5019806;28;20229;-65
2021/01/16 09:18:55;;;;;;;21.63;13.77;;;1.70;99.90;;;;;;5033658;28;20184;-65
2021/01/16 09:21:24;;;;;;;21.87;13.23;;;1.70;99.90;;;;;;5032144;28;20176;-64
2021/01/16 09:23:50;;;;;;;22.77;13.57;;;1.70;99.90;;;;;;5033925;28;20194;-65
2021/01/16 09:26:20;;;;;;;21.97;13.80;;;1.70;99.90;;;;;;5022061;28;20212;-64
2021/01/16 09:28:54;;;;;;;23.43;13.20;;;1.70;99.90;;;;;;5013937;28;20543;-64
2021/01/16 09:31:33;;;;;;;21.20;13.67;;;1.70;99.90;;;;;;5025311;28;20182;-64
2021/01/16 09:34:20;;;;;;;20.50;11.90;;;1.70;99.90;;;;;;5033682;28;20179;-65
2021/01/16 09:36:48;;;;;;;19.87;12.83;;;1.80;99.90;;;;;;5018741;28;20254;-65
2021/01/16 09:39:20;;;;;;;14.60;10.43;;;1.80;99.90;;;;;;5014475;28;20176;-65
2021/01/16 09:41:48;;;;;;;20.50;12.83;;;1.70;99.90;;;;;;5027281;28;20656;-64
2021/01/16 09:44:14;;;;;;;19.83;12.40;;;1.70;99.90;;;;;;5033590;28;20611;-65
2021/01/16 09:46:43;;;;;;;20.30;11.90;;;1.70;99.90;;;;;;5022385;28;20319;-64
2021/01/16 09:49:11;;;;;;;19.43;12.20;;;1.70;99.90;;;;;;5024599;28;20233;-65
2021/01/16 09:51:37;;;;;;;20.10;11.87;;;1.70;99.90;;;;;;5014288;28;20173;-65
2021/01/16 09:54:10;;;;;;;24.10;13.23;;;1.80;99.90;;;;;;5023465;28;20207;-64
2021/01/16 09:56:48;;;;;;;26.00;14.93;;;1.80;99.90;;;;;;5033087;28;20553;-65
2021/01/16 09:59:22;;;;;;;17.93;11.17;;;1.80;99.90;;;;;;5022166;28;20192;-65
2021/01/16 10:02:13;;;;;;;25.03;13.53;;;1.80;99.90;;;;;;5015367;28;20187;-65
2021/01/16 10:04:40;;;;;;;24.17;13.80;;;1.80;99.90;;;;;;5026716;28;20286;-65
2021/01/16 10:07:08;;;;;;;18.27;11.17;;;1.80;99.90;;;;;;5021509;28;20211;-64
2021/01/16 10:09:42;;;;;;;20.00;12.23;;;1.90;99.90;;;;;;5012981;28;20535;-64
2021/01/16 10:12:09;;;;;;;17.17;11.37;;;1.90;99.90;;;;;;5023483;28;20258;-65
2021/01/16 10:14:36;;;;;;;20.70;11.77;;;1.90;99.90;;;;;;5032625;28;20286;-64
2021/01/16 10:17:10;;;;;;;18.40;12.43;;;1.90;99.90;;;;;;5023290;28;20195;-64
2021/01/16 10:19:37;;;;;;;16.67;11.03;;;1.90;99.90;;;;;;5012880;28;20761;-65
2021/01/16 10:22:03;;;;;;;20.73;11.87;;;1.90;99.90;;;;;;5013972;28;20192;-65
2021/01/16 10:24:29;;;;;;;17.93;11.60;;;2.00;99.90;;;;;;5012593;28;20204;-65
2021/01/16 10:26:55;;;;;;;19.90;11.57;;;2.00;99.90;;;;;;5013655;28;20677;-64
2021/01/16 10:29:40;;;;;;;20.00;12.13;;;2.00;99.90;;;;;;5020599;28;20180;-64
2021/01/16 10:32:23;;;;;;;22.13;13.40;;;1.90;99.90;;;;;;5024217;28;20268;-63
2021/01/16 10:34:51;;;;;;;21.83;13.17;;;2.00;99.90;;;;;;5012875;28;20562;-64
2021/01/16 10:37:18;;;;;;;24.23;14.67;;;2.00;99.90;;;;;;5027608;28;20210;-64
2021/01/16 10:39:50;;;;;;;24.17;13.70;;;2.00;99.90;;;;;;5032260;28;20190;-65
2021/01/16 10:42:18;;;;;;;22.70;13.07;;;2.00;99.90;;;;;;5017176;28;20188;-64
2021/01/16 10:44:44;;;;;;;20.50;12.63;;;2.00;99.90;;;;;;5012545;28;20210;-65
2021/01/16 10:47:39;;;;;;;26.90;12.13;;;2.10;99.90;;;;;;5026255;28;20211;-65
2021/01/16 10:50:30;;;;;;;19.10;11.73;;;2.20;99.90;;;;;;5032152;28;20253;-64
2021/01/16 10:53:06;;;;;;;19.10;12.63;;;2.20;99.90;;;;;;4992361;28;20553;-65
2021/01/16 10:55:58;;;;;;;23.30;13.30;;;2.20;99.90;;;;;;4992741;28;20220;-65
2021/01/16 10:58:25;;;;;;;23.53;11.83;;;2.30;99.90;;;;;;5009923;28;20562;-65
2021/01/16 11:00:59;;;;;;;23.40;13.17;;;2.40;99.90;;;;;;5017503;28;20180;-65
2021/01/16 11:03:31;;;;;;;19.47;12.47;;;2.40;99.90;;;;;;5031784;28;20249;-65
2021/01/16 11:06:08;;;;;;;20.53;13.97;;;2.50;99.90;;;;;;5021966;28;20258;-65
2021/01/16 11:08:42;;;;;;;25.77;14.93;;;2.50;99.90;;;;;;5011718;28;20195;-64
2021/01/16 11:11:26;;;;;;;22.87;12.77;;;2.50;99.90;;;;;;5013727;28;20184;-65
2021/01/16 11:13:54;;;;;;;20.67;11.87;;;2.60;99.90;;;;;;5012138;28;20543;-65
2021/01/16 11:16:23;;;;;;;20.23;11.87;;;2.60;99.90;;;;;;5023461;28;20209;-65
2021/01/16 11:18:48;;;;;;;20.07;12.03;;;2.60;99.90;;;;;;5031416;28;20185;-65
2021/01/16 11:21:36;;;;;;;14.87;10.33;;;2.60;99.90;;;;;;5021032;28;20184;-66
2021/01/16 11:24:47;;;;;;;17.73;11.13;;;2.60;99.90;;;;;;4992407;28;20184;-65
2021/01/16 11:27:16;;;;;;;17.77;11.73;;;2.60;99.90;;;;;;5025335;28;20728;-64
2021/01/16 11:29:44;;;;;;;20.07;11.47;;;2.60;99.90;;;;;;5031878;28;20301;-65
2021/01/16 11:32:18;;;;;;;20.37;10.57;;;2.70;99.90;;;;;;5015599;28;20195;-65
2021/01/16 11:35:02;;;;;;;21.13;12.17;;;2.60;99.90;;;;;;5030919;23;20280;-64
2021/01/16 11:37:47;;;;;;;18.77;11.30;;;2.70;99.90;;;;;;5030745;28;20171;-64
2021/01/16 11:40:33;;;;;;;18.50;10.67;;;2.70;99.90;;;;;;5023517;28;20175;-64
2021/01/16 11:43:01;;;;;;;20.00;12.17;;;2.80;99.90;;;;;;5011761;28;20168;-64
2021/01/16 11:45:27;;;;;;;20.77;12.57;;;2.90;99.90;;;;;;5008702;28;20258;-64
2021/01/16 11:47:55;;;;;;;16.27;10.93;;;2.90;99.90;;;;;;5011428;28;20176;-64
2021/01/16 11:50:23;;;;;;;18.30;11.33;;;3.00;99.90;;;;;;5003604;28;20568;-64
2021/01/16 11:52:48;;;;;;;18.40;10.70;;;3.10;99.90;;;;;;4991407;28;20165;-64
2021/01/16 11:55:15;;;;;;;16.67;10.20;;;3.20;99.90;;;;;;4996787;28;20192;-63
2021/01/16 11:57:45;;;;;;;12.93;8.83;;;3.20;99.90;;;;;;5011116;28;20180;-63
2021/01/16 12:00:14;;;;;;;13.40;8.97;;;3.20;99.90;;;;;;5006069;28;20251;-64
2021/01/16 12:02:45;;;;;;;13.70;8.73;;;3.20;99.90;;;;;;4992035;28;20524;-64
2021/01/16 12:05:17;;;;;;;14.60;9.20;;;3.20;99.90;;;;;;5003366;28;20776;-64
2021/01/16 12:07:56;;;;;;;14.53;9.00;;;3.20;99.90;;;;;;5011078;28;20203;-64
2021/01/16 12:10:27;;;;;;;14.47;8.90;;;3.20;99.90;;;;;;4998719;28;20185;-64
2021/01/16 12:12:57;;;;;;;17.97;8.90;;;3.20;99.90;;;;;;4991910;28;20535;-64
2021/01/16 12:15:24;;;;;;;14.50;8.80;;;3.20;99.90;;;;;;5006991;28;20547;-65
2021/01/16 12:17:52;;;;;;;13.97;8.63;;;3.20;99.90;;;;;;5015296;28;20176;-64
2021/01/16 12:20:21;;;;;;;14.17;9.60;;;3.20;99.90;;;;;;5004304;28;20272;-63
2021/01/16 12:22:50;;;;;;;14.43;9.13;;;3.20;99.90;;;;;;5003961;28;20184;-64
2021/01/16 12:25:17;;;;;;;10.27;8.10;;;3.30;99.90;;;;;;5015053;28;20230;-64
2021/01/16 12:27:53;;;;;;;16.63;10.30;;;3.30;99.90;;;;;;5006999;28;20212;-64
2021/01/16 12:30:21;;;;;;;21.10;13.27;;;3.30;99.90;;;;;;4995439;28;20175;-64
2021/01/16 12:32:47;;;;;;;21.87;13.17;;;3.30;99.90;;;;;;5002562;28;20176;-65
2021/01/16 12:35:14;;;;;;;17.33;11.90;;;3.40;99.90;;;;;;4998760;28;20216;-65
2021/01/16 12:37:41;;;;;;;22.77;15.80;;;3.40;99.90;;;;;;5000415;28;20222;-65
2021/01/16 12:40:13;;;;;;;17.63;10.73;;;3.30;99.90;;;;;;5014726;28;20164;-65
2021/01/16 12:42:40;;;;;;;13.90;8.43;;;3.30;99.90;;;;;;5009070;28;20195;-65
2021/01/16 12:45:10;;;;;;;10.53;8.13;;;3.20;99.90;;;;;;4995029;28;20188;-64
2021/01/16 12:47:37;;;;;;;9.00;6.93;;;3.20;99.90;;;;;;4994302;28;20260;-64
2021/01/16 12:50:05;;;;;;;12.17;8.47;;;3.00;99.90;;;;;;4996044;28;20168;-64
2021/01/16 12:52:31;;;;;;;9.90;7.87;;;3.00;99.90;;;;;;4995269;28;20177;-65
2021/01/16 12:55:01;;;;;;;9.47;7.63;;;3.00;99.90;;;;;;5011919;28;20279;-64